createdAt,value
2017-11-25T00:02:12.531Z,9.60
2017-11-25T00:04:40.774Z,9.60
2017-11-25T00:07:09.789Z,9.60
2017-11-25T00:09:38.044Z,9.60
2017-11-25T00:12:07.048Z,9.60
2017-11-25T00:14:36.067Z,9.70
2017-11-25T00:17:04.310Z,9.60
2017-11-25T00:19:33.327Z,9.70
2017-11-25T00:22:01.576Z,9.70
2017-11-25T00:24:29.888Z,9.70
2017-11-25T00:26:58.210Z,9.80
2017-11-25T00:29:26.568Z,9.80
2017-11-25T00:31:54.805Z,9.80
2017-11-25T00:34:23.060Z,9.80
2017-11-25T00:36:52.142Z,9.90
2017-11-25T00:39:21.148Z,9.90
2017-11-25T00:41:50.171Z,9.80
2017-11-25T00:44:18.411Z,9.80
2017-11-25T00:46:47.423Z,9.70
2017-11-25T00:49:15.671Z,9.70
2017-11-25T00:51:43.911Z,9.60
2017-11-25T00:54:12.147Z,9.50
2017-11-25T00:56:40.399Z,9.40
2017-11-25T00:59:08.631Z,9.40
2017-11-25T01:01:36.881Z,9.40
2017-11-25T01:04:05.115Z,9.40
2017-11-25T01:06:33.358Z,9.30
2017-11-25T01:09:01.599Z,9.30
2017-11-25T01:11:29.846Z,9.30
2017-11-25T01:13:58.084Z,9.30
2017-11-25T01:16:26.322Z,9.30
2017-11-25T01:18:54.571Z,9.20
2017-11-25T01:21:22.809Z,9.20
2017-11-25T01:23:51.042Z,9.20
2017-11-25T01:26:20.052Z,9.10
2017-11-25T01:28:48.290Z,9.10
2017-11-25T01:31:16.535Z,9.10
2017-11-25T01:33:44.771Z,9.10
2017-11-25T01:36:13.028Z,9.10
2017-11-25T01:38:42.028Z,9.00
2017-11-25T01:41:11.045Z,9.10
2017-11-25T01:43:39.284Z,9.10
2017-11-25T01:46:08.289Z,9.10
2017-11-25T01:48:37.292Z,9.00
2017-11-25T01:51:05.538Z,9.00
2017-11-25T01:53:33.788Z,9.00
2017-11-25T01:56:02.029Z,9.00
2017-11-25T01:58:30.282Z,9.00
2017-11-25T02:00:59.278Z,9.00
2017-11-25T02:03:27.526Z,8.90
2017-11-25T02:05:55.766Z,8.90
2017-11-25T02:08:24.002Z,8.90
2017-11-25T02:10:53.004Z,8.80
2017-11-25T02:13:21.251Z,8.80
2017-11-25T02:15:50.254Z,8.80
2017-11-25T02:18:19.273Z,8.80
2017-11-25T02:20:47.505Z,8.80
2017-11-25T02:23:15.755Z,8.80
2017-11-25T02:25:43.986Z,8.80
2017-11-25T02:28:12.244Z,8.80
2017-11-25T02:30:41.239Z,8.70
2017-11-25T02:33:10.247Z,8.70
2017-11-25T02:35:38.492Z,8.70
2017-11-25T02:38:06.744Z,8.70
2017-11-25T02:40:34.976Z,8.70
2017-11-25T02:43:03.224Z,8.70
2017-11-25T02:45:31.460Z,8.60
2017-11-25T02:47:59.703Z,8.70
2017-11-25T02:50:27.956Z,8.70
2017-11-25T02:52:56.191Z,8.70
2017-11-25T02:55:24.430Z,8.70
2017-11-25T02:57:52.674Z,8.60
2017-11-25T03:00:20.912Z,8.60
2017-11-25T03:02:49.152Z,8.60
2017-11-25T03:05:17.383Z,8.50
2017-11-25T03:07:45.628Z,8.50
2017-11-25T03:10:13.867Z,8.50
2017-11-25T03:12:42.865Z,8.30
2017-11-25T03:15:11.097Z,8.30
2017-11-25T03:17:39.347Z,8.30
2017-11-25T03:20:07.585Z,8.30
2017-11-25T03:22:35.837Z,8.30
2017-11-25T03:25:04.083Z,8.30
2017-11-25T03:27:32.320Z,8.30
2017-11-25T03:30:00.802Z,8.20
2017-11-25T03:32:29.034Z,8.20
2017-11-25T03:34:57.296Z,8.20
2017-11-25T03:37:25.526Z,8.30
2017-11-25T03:39:53.776Z,8.30
2017-11-25T03:42:22.778Z,8.30
2017-11-25T03:44:51.796Z,8.30
2017-11-25T03:47:20.026Z,8.30
2017-11-25T03:49:48.270Z,8.20
2017-11-25T03:52:16.515Z,8.30
2017-11-25T03:54:44.763Z,8.20
2017-11-25T03:57:13.773Z,8.30
2017-11-25T03:59:42.779Z,8.30
2017-11-25T04:02:11.020Z,8.30
2017-11-25T04:04:40.031Z,8.30
2017-11-25T04:07:09.036Z,8.30
2017-11-25T04:09:37.282Z,8.30
2017-11-25T04:12:06.287Z,8.20
2017-11-25T04:14:35.312Z,8.20
2017-11-25T04:17:03.558Z,8.20
2017-11-25T04:19:32.559Z,8.20
2017-11-25T04:22:00.820Z,8.20
2017-11-25T04:24:29.825Z,8.20
2017-11-25T04:26:58.832Z,8.20
2017-11-25T04:29:27.071Z,8.20
2017-11-25T04:31:55.320Z,8.20
2017-11-25T04:34:23.556Z,8.20
2017-11-25T04:36:51.794Z,8.20
2017-11-25T04:39:20.814Z,8.10
2017-11-25T04:41:49.053Z,8.10
2017-11-25T04:44:17.290Z,8.10
2017-11-25T04:46:45.539Z,8.10
2017-11-25T04:49:13.787Z,8.00
2017-11-25T04:51:42.024Z,8.00
2017-11-25T04:54:10.277Z,8.00
2017-11-25T04:56:38.520Z,7.90
2017-11-25T04:59:06.752Z,8.00
2017-11-25T05:01:35.002Z,8.00
2017-11-25T05:04:03.257Z,8.00
2017-11-25T05:06:32.257Z,7.90
2017-11-25T05:09:00.516Z,7.90
2017-11-25T05:11:28.745Z,7.90
2017-11-25T05:13:56.994Z,8.00
2017-11-25T05:16:25.232Z,7.90
2017-11-25T05:18:53.472Z,7.90
2017-11-25T05:21:22.476Z,7.80
2017-11-25T05:23:50.731Z,7.80
2017-11-25T05:26:18.968Z,7.80
2017-11-25T05:28:47.973Z,7.80
2017-11-25T05:31:16.211Z,7.80
2017-11-25T05:33:44.459Z,7.80
2017-11-25T05:36:12.706Z,7.80
2017-11-25T05:38:40.955Z,7.70
2017-11-25T05:41:10.932Z,7.70
2017-11-25T05:43:39.168Z,7.70
2017-11-25T05:46:07.410Z,7.70
2017-11-25T05:48:36.405Z,7.70
2017-11-25T05:51:05.416Z,7.70
2017-11-25T05:53:34.428Z,7.70
2017-11-25T05:56:02.667Z,7.70
2017-11-25T05:58:31.658Z,7.70
2017-11-25T06:01:00.676Z,7.70
2017-11-25T06:03:28.903Z,7.70
2017-11-25T06:05:57.164Z,7.70
2017-11-25T06:08:25.398Z,7.70
2017-11-25T06:10:53.645Z,7.70
2017-11-25T06:13:21.879Z,7.70
2017-11-25T06:15:50.136Z,7.60
2017-11-25T06:18:18.385Z,7.60
2017-11-25T06:20:47.393Z,7.60
2017-11-25T06:23:15.629Z,7.60
2017-11-25T06:25:43.886Z,7.60
2017-11-25T06:28:12.119Z,7.60
2017-11-25T06:30:40.360Z,7.60
2017-11-25T06:33:08.596Z,7.60
2017-11-25T06:35:36.831Z,7.50
2017-11-25T06:38:05.849Z,7.50
2017-11-25T06:40:34.080Z,7.50
2017-11-25T06:43:02.327Z,7.50
2017-11-25T06:45:30.559Z,7.50
2017-11-25T06:47:58.812Z,7.50
2017-11-25T06:50:27.814Z,7.50
2017-11-25T06:52:56.824Z,7.50
2017-11-25T06:55:25.062Z,7.40
2017-11-25T06:57:53.314Z,7.40
2017-11-25T07:00:21.549Z,7.30
2017-11-25T07:02:49.807Z,7.20
2017-11-25T07:05:18.813Z,6.90
2017-11-25T07:07:47.124Z,6.90
2017-11-25T07:10:15.411Z,6.80
2017-11-25T07:12:43.691Z,6.70
2017-11-25T07:15:11.984Z,6.60
2017-11-25T07:17:40.279Z,6.50
2017-11-25T07:20:09.323Z,6.40
2017-11-25T07:22:37.692Z,6.40
2017-11-25T07:25:06.003Z,6.40
2017-11-25T07:27:34.258Z,6.40
2017-11-25T07:30:02.842Z,6.30
2017-11-25T07:32:31.113Z,6.30
2017-11-25T07:34:59.391Z,6.30
2017-11-25T07:37:27.691Z,6.30
2017-11-25T07:39:55.953Z,6.30
2017-11-25T07:42:24.253Z,6.20
2017-11-25T07:44:52.541Z,6.20
2017-11-25T07:47:21.629Z,6.10
2017-11-25T07:49:50.709Z,6.10
2017-11-25T07:52:19.031Z,6.10
2017-11-25T07:54:47.326Z,6.10
2017-11-25T07:57:15.643Z,6.10
2017-11-25T07:59:43.968Z,6.10
2017-11-25T08:02:12.281Z,6.10
2017-11-25T08:04:40.564Z,6.10
2017-11-25T08:07:08.867Z,6.00
2017-11-25T08:09:37.928Z,6.00
2017-11-25T08:12:06.251Z,6.00
2017-11-25T08:14:35.331Z,6.00
2017-11-25T08:17:04.399Z,6.00
2017-11-25T08:19:32.691Z,6.00
2017-11-25T08:22:01.018Z,6.00
2017-11-25T08:24:29.331Z,6.00
2017-11-25T08:26:57.660Z,6.00
2017-11-25T08:29:25.945Z,6.00
2017-11-25T08:31:54.271Z,6.00
2017-11-25T08:34:22.585Z,6.00
2017-11-25T08:36:50.892Z,5.90
2017-11-25T08:39:19.191Z,6.00
2017-11-25T08:41:47.484Z,6.00
2017-11-25T08:44:15.783Z,6.00
2017-11-25T08:46:44.871Z,6.00
2017-11-25T08:49:13.967Z,6.00
2017-11-25T08:51:43.041Z,6.00
2017-11-25T08:54:12.132Z,6.00
2017-11-25T08:56:40.436Z,6.00
2017-11-25T08:59:09.512Z,5.90
2017-11-25T09:01:37.828Z,5.90
2017-11-25T09:04:06.134Z,6.00
2017-11-25T09:06:34.454Z,6.00
2017-11-25T09:09:03.547Z,5.90
2017-11-25T09:11:32.616Z,5.90
2017-11-25T09:14:00.914Z,5.90
2017-11-25T09:16:29.223Z,5.90
2017-11-25T09:18:57.554Z,5.90
2017-11-25T09:21:25.841Z,5.90
2017-11-25T09:23:54.177Z,5.90
2017-11-25T09:26:22.481Z,5.90
2017-11-25T09:28:50.803Z,5.80
2017-11-25T09:31:19.085Z,5.80
2017-11-25T09:33:47.363Z,5.80
2017-11-25T09:36:15.618Z,5.70
2017-11-25T09:38:44.637Z,5.70
2017-11-25T09:41:12.912Z,5.70
2017-11-25T09:43:41.165Z,5.70
2017-11-25T09:46:09.429Z,5.60
2017-11-25T09:48:38.437Z,5.60
2017-11-25T09:51:06.699Z,5.60
2017-11-25T09:53:35.715Z,5.60
2017-11-25T09:56:03.971Z,5.60
2017-11-25T09:58:32.279Z,5.60
2017-11-25T10:01:00.600Z,5.60
2017-11-25T10:03:28.860Z,5.60
2017-11-25T10:05:57.110Z,5.60
2017-11-25T10:08:26.374Z,5.60
2017-11-25T10:10:54.739Z,5.70
2017-11-25T10:13:22.996Z,5.60
2017-11-25T10:15:51.266Z,5.60
2017-11-25T10:18:19.521Z,5.50
2017-11-25T10:20:48.562Z,5.60
2017-11-25T10:23:17.579Z,5.50
2017-11-25T10:25:45.851Z,5.50
2017-11-25T10:28:14.122Z,5.50
2017-11-25T10:30:43.153Z,5.50
2017-11-25T10:33:11.427Z,5.40
2017-11-25T10:35:39.677Z,5.50
2017-11-25T10:38:07.942Z,5.50
2017-11-25T10:40:36.968Z,5.30
2017-11-25T10:43:05.239Z,5.30
2017-11-25T10:45:33.517Z,5.40
2017-11-25T10:48:01.818Z,5.40
2017-11-25T10:50:30.088Z,5.40
2017-11-25T10:52:58.351Z,5.40
2017-11-25T10:55:26.633Z,5.50
2017-11-25T10:57:54.917Z,5.40
2017-11-25T11:00:23.189Z,5.40
2017-11-25T11:02:51.458Z,5.50
2017-11-25T11:05:19.753Z,5.40
2017-11-25T11:07:48.029Z,5.50
2017-11-25T11:10:16.310Z,5.50
2017-11-25T11:12:44.550Z,5.50
2017-11-25T11:15:12.888Z,5.50
2017-11-25T11:17:41.999Z,5.40
2017-11-25T11:20:10.247Z,5.40
2017-11-25T11:22:38.483Z,5.40
2017-11-25T11:25:06.733Z,5.40
2017-11-25T11:27:34.975Z,5.30
2017-11-25T11:30:03.395Z,5.30
2017-11-25T11:32:31.636Z,5.30
2017-11-25T11:35:00.670Z,5.30
2017-11-25T11:37:28.896Z,5.30
2017-11-25T11:39:57.152Z,5.40
2017-11-25T11:42:25.388Z,5.40
2017-11-25T11:44:53.648Z,5.40
2017-11-25T11:47:21.896Z,5.40
2017-11-25T11:49:50.329Z,5.50
2017-11-25T11:52:18.754Z,5.50
2017-11-25T11:54:47.240Z,5.50
2017-11-25T11:57:15.613Z,5.60
2017-11-25T11:59:44.008Z,5.60
2017-11-25T12:02:13.089Z,5.50
2017-11-25T12:04:42.353Z,5.50
2017-11-25T12:07:10.804Z,5.50
2017-11-25T12:09:39.111Z,5.50
2017-11-25T12:12:07.632Z,5.50
2017-11-25T12:14:36.718Z,5.50
2017-11-25T12:17:05.043Z,5.50
2017-11-25T12:19:33.358Z,5.60
2017-11-25T12:22:01.776Z,5.60
2017-11-25T12:24:30.861Z,5.60
2017-11-25T12:26:59.948Z,5.60
2017-11-25T12:29:29.038Z,5.70
2017-11-25T12:31:57.365Z,5.70
2017-11-25T12:34:25.662Z,5.70
2017-11-25T12:36:54.004Z,5.70
2017-11-25T12:39:22.316Z,5.70
2017-11-25T12:41:50.692Z,5.70
2017-11-25T12:44:19.029Z,5.70
2017-11-25T12:46:47.422Z,5.80
2017-11-25T12:49:15.774Z,5.80
2017-11-25T12:51:44.894Z,5.90
2017-11-25T12:54:13.271Z,5.80
2017-11-25T12:56:41.601Z,6.00
2017-11-25T12:59:09.910Z,5.90
2017-11-25T13:01:38.239Z,5.80
2017-11-25T13:04:06.609Z,5.80
2017-11-25T13:06:35.680Z,5.50
2017-11-25T13:09:04.046Z,5.50
2017-11-25T13:11:32.339Z,5.40
2017-11-25T13:14:00.666Z,5.50
2017-11-25T13:16:28.947Z,5.40
2017-11-25T13:18:57.231Z,5.30
2017-11-25T13:21:26.299Z,5.30
2017-11-25T13:23:54.553Z,5.20
2017-11-25T13:26:22.812Z,5.20
2017-11-25T13:28:51.070Z,5.20
2017-11-25T13:31:19.338Z,5.40
2017-11-25T13:33:48.364Z,5.50
2017-11-25T13:36:16.612Z,5.50
2017-11-25T13:38:44.852Z,5.60
2017-11-25T13:41:13.086Z,5.60
2017-11-25T13:43:41.333Z,5.50
2017-11-25T13:46:10.358Z,5.40
2017-11-25T13:48:38.596Z,5.40
2017-11-25T13:51:07.607Z,5.40
2017-11-25T13:53:35.853Z,5.40
2017-11-25T13:56:04.857Z,5.40
2017-11-25T13:58:33.883Z,5.40
2017-11-25T14:01:02.126Z,5.40
2017-11-25T14:03:31.134Z,5.40
2017-11-25T14:05:59.423Z,5.40
2017-11-25T14:08:27.666Z,5.40
2017-11-25T14:10:56.671Z,5.30
2017-11-25T14:13:24.918Z,5.30
2017-11-25T14:15:53.162Z,5.10
2017-11-25T14:18:21.407Z,5.00
2017-11-25T14:20:49.643Z,5.00
2017-11-25T14:23:17.903Z,5.00
2017-11-25T14:25:46.122Z,5.00
2017-11-25T14:28:14.373Z,5.00
2017-11-25T14:30:42.607Z,4.90
2017-11-25T14:33:11.623Z,4.90
2017-11-25T14:35:39.856Z,4.80
2017-11-25T14:38:08.119Z,4.80
2017-11-25T14:40:36.362Z,4.80
2017-11-25T14:43:04.606Z,4.70
2017-11-25T14:45:32.855Z,4.80
2017-11-25T14:48:01.095Z,4.70
2017-11-25T14:50:29.345Z,4.70
2017-11-25T14:52:57.590Z,4.70
2017-11-25T14:55:25.871Z,4.70
2017-11-25T14:57:54.101Z,4.60
2017-11-25T15:00:23.117Z,4.60
2017-11-25T15:02:51.356Z,4.70
2017-11-25T15:05:19.637Z,4.60
2017-11-25T15:07:47.883Z,4.60
2017-11-25T15:10:16.139Z,4.60
2017-11-25T15:12:44.423Z,4.50
2017-11-25T15:15:12.723Z,4.40
2017-11-25T15:17:40.997Z,4.50
2017-11-25T15:20:09.269Z,4.50
2017-11-25T15:22:37.688Z,4.40
2017-11-25T15:25:06.713Z,4.40
2017-11-25T15:27:35.012Z,4.40
2017-11-25T15:30:03.285Z,4.40
2017-11-25T15:32:31.586Z,4.40
2017-11-25T15:34:59.901Z,4.40
2017-11-25T15:37:28.220Z,4.40
2017-11-25T15:39:56.580Z,4.40
2017-11-25T15:42:24.927Z,4.40
2017-11-25T15:44:53.272Z,4.30
2017-11-25T15:47:21.592Z,4.30
2017-11-25T15:49:49.891Z,4.30
2017-11-25T15:52:18.224Z,4.30
2017-11-25T15:54:47.315Z,4.30
2017-11-25T15:57:16.386Z,4.30
2017-11-25T15:59:44.720Z,4.30
2017-11-25T16:02:13.062Z,4.30
2017-11-25T16:04:42.115Z,4.20
2017-11-25T16:07:10.417Z,4.20
2017-11-25T16:09:38.742Z,4.00
2017-11-25T16:12:07.041Z,3.80
2017-11-25T16:14:35.384Z,3.70
2017-11-25T16:17:04.447Z,3.50
2017-11-25T16:19:32.770Z,3.50
2017-11-25T16:22:01.088Z,3.50
2017-11-25T16:24:29.393Z,3.50
2017-11-25T16:26:58.486Z,3.40
2017-11-25T16:29:27.569Z,3.40
2017-11-25T16:31:55.904Z,3.40
2017-11-25T16:34:24.217Z,3.40
2017-11-25T16:36:52.541Z,3.40
2017-11-25T16:39:20.852Z,3.30
2017-11-25T16:41:49.179Z,3.30
2017-11-25T16:44:17.504Z,3.30
2017-11-25T16:46:45.816Z,3.30
2017-11-25T16:49:14.909Z,3.20
2017-11-25T16:51:43.988Z,3.20
2017-11-25T16:54:12.320Z,3.20
2017-11-25T16:56:40.651Z,3.20
2017-11-25T16:59:09.761Z,3.20
2017-11-25T17:01:38.845Z,3.20
2017-11-25T17:04:08.744Z,3.20
2017-11-25T17:06:37.059Z,3.20
2017-11-25T17:09:06.145Z,3.20
2017-11-25T17:11:35.226Z,3.20
2017-11-25T17:14:04.321Z,3.10
2017-11-25T17:16:33.418Z,3.10
2017-11-25T17:19:02.535Z,3.10
2017-11-25T17:21:30.867Z,3.10
2017-11-25T17:23:59.177Z,3.10
2017-11-25T17:26:27.561Z,3.10
2017-11-25T17:28:56.640Z,3.10
2017-11-25T17:31:25.707Z,3.00
2017-11-25T17:33:54.035Z,3.00
2017-11-25T17:36:22.366Z,3.00
2017-11-25T17:38:50.704Z,3.00
2017-11-25T17:41:19.035Z,3.00
2017-11-25T17:43:47.340Z,3.00
2017-11-25T17:46:15.670Z,3.00
2017-11-25T17:48:43.992Z,2.90
2017-11-25T17:51:12.323Z,2.90
2017-11-25T17:53:40.656Z,2.90
2017-11-25T17:56:08.954Z,2.90
2017-11-25T17:58:37.275Z,2.90
2017-11-25T18:01:05.620Z,2.90
2017-11-25T18:03:33.877Z,2.80
2017-11-25T18:06:02.195Z,2.80
2017-11-25T18:08:30.476Z,2.80
2017-11-25T18:10:58.715Z,2.90
2017-11-25T18:13:27.128Z,2.80
2017-11-25T18:15:55.448Z,2.80
2017-11-25T18:18:23.748Z,2.80
2017-11-25T18:20:52.020Z,2.80
2017-11-25T18:23:20.313Z,2.90
2017-11-25T18:25:48.601Z,2.90
2017-11-25T18:28:16.971Z,2.90
2017-11-25T18:30:45.385Z,2.90
2017-11-25T18:33:13.708Z,2.90
2017-11-25T18:35:42.119Z,2.90
2017-11-25T18:38:11.213Z,2.90
2017-11-25T18:40:39.601Z,2.80
2017-11-25T18:43:08.809Z,2.90
2017-11-25T18:45:37.993Z,2.90
2017-11-25T18:48:06.305Z,2.80
2017-11-25T18:50:34.586Z,2.80
2017-11-25T18:53:02.849Z,2.80
2017-11-25T18:55:31.871Z,2.80
2017-11-25T18:58:00.141Z,2.70
2017-11-25T19:00:28.439Z,2.70
2017-11-25T19:02:56.713Z,2.80
2017-11-25T19:05:24.982Z,2.80
2017-11-25T19:07:53.243Z,2.70
2017-11-25T19:10:21.514Z,2.70
2017-11-25T19:12:49.771Z,2.70
2017-11-25T19:15:18.809Z,2.70
2017-11-25T19:17:47.080Z,2.70
2017-11-25T19:20:15.460Z,2.70
2017-11-25T19:22:43.729Z,2.70
2017-11-25T19:25:12.018Z,2.70
2017-11-25T19:27:40.292Z,2.70
2017-11-25T19:30:08.555Z,2.60
2017-11-25T19:32:36.825Z,2.60
2017-11-25T19:35:05.095Z,2.50
2017-11-25T19:37:33.396Z,2.50
2017-11-25T19:40:03.172Z,2.50
2017-11-25T19:42:31.428Z,2.50
2017-11-25T19:45:00.505Z,2.50
2017-11-25T19:47:28.750Z,2.50
2017-11-25T19:49:57.016Z,2.50
2017-11-25T19:52:25.277Z,2.40
2017-11-25T19:54:53.559Z,2.30
2017-11-25T19:57:21.812Z,2.30
2017-11-25T19:59:50.833Z,2.30
2017-11-25T20:02:19.100Z,2.30
2017-11-25T20:04:48.147Z,2.30
2017-11-25T20:07:16.400Z,2.30
2017-11-25T20:09:44.684Z,2.30
2017-11-25T20:12:12.941Z,2.30
2017-11-25T20:14:41.215Z,2.30
2017-11-25T20:17:09.514Z,2.30
2017-11-25T20:19:37.777Z,2.30
2017-11-25T20:22:06.041Z,2.30
2017-11-25T20:24:34.287Z,2.20
2017-11-25T20:27:02.560Z,2.20
2017-11-25T20:29:30.839Z,2.20
2017-11-25T20:31:59.118Z,2.10
2017-11-25T20:34:28.168Z,2.10
2017-11-25T20:36:56.432Z,2.10
2017-11-25T20:39:24.682Z,2.10
2017-11-25T20:41:52.959Z,2.10
2017-11-25T20:44:21.224Z,2.10
2017-11-25T20:46:49.491Z,2.10
2017-11-25T20:49:17.784Z,2.00
2017-11-25T20:51:46.069Z,2.00
2017-11-25T20:54:14.327Z,2.00
2017-11-25T20:56:42.619Z,2.00
2017-11-25T20:59:10.918Z,2.00
2017-11-25T21:01:39.177Z,1.90
2017-11-25T21:04:07.452Z,1.90
2017-11-25T21:06:35.747Z,1.90
2017-11-25T21:09:04.019Z,1.80
2017-11-25T21:11:32.291Z,1.80
2017-11-25T21:14:00.602Z,1.70
2017-11-25T21:16:28.861Z,1.70
2017-11-25T21:18:57.124Z,1.70
2017-11-25T21:21:25.395Z,1.70
2017-11-25T21:23:53.653Z,1.70
2017-11-25T21:26:21.912Z,1.70
2017-11-25T21:28:50.190Z,1.70
2017-11-25T21:31:18.476Z,1.70
2017-11-25T21:33:46.761Z,1.70
2017-11-25T21:36:15.891Z,1.70
2017-11-25T21:38:44.147Z,1.70
2017-11-25T21:41:12.417Z,1.70
2017-11-25T21:43:40.705Z,1.70
2017-11-25T21:46:09.015Z,1.70
2017-11-25T21:48:38.037Z,1.70
2017-11-25T21:51:06.335Z,1.70
2017-11-25T21:53:34.608Z,1.80
2017-11-25T21:56:02.878Z,1.70
2017-11-25T21:58:31.135Z,1.70
2017-11-25T22:00:59.427Z,1.70
2017-11-25T22:03:54.134Z,1.70
2017-11-25T22:44:28.935Z,1.60
2017-11-25T22:46:57.196Z,1.50
2017-11-25T22:49:25.444Z,1.60
2017-11-25T22:51:53.691Z,1.50
2017-11-25T22:54:21.976Z,1.60
2017-11-25T22:56:50.227Z,1.50
2017-11-25T22:59:19.592Z,1.50
2017-11-25T23:01:47.858Z,1.50
2017-11-25T23:04:16.114Z,1.40
2017-11-25T23:06:44.381Z,1.50
2017-11-25T23:09:12.636Z,1.40
2017-11-25T23:11:41.663Z,1.40
2017-11-25T23:14:09.924Z,1.40
2017-11-25T23:16:38.236Z,1.40
2017-11-25T23:19:06.483Z,1.40
2017-11-25T23:21:34.757Z,1.40
2017-11-25T23:24:03.008Z,1.50
2017-11-25T23:26:32.036Z,1.50
2017-11-25T23:29:00.345Z,1.50
2017-11-25T23:31:28.605Z,1.50
2017-11-25T23:33:56.853Z,1.50
2017-11-25T23:36:25.122Z,1.50
2017-11-25T23:38:53.586Z,1.40
2017-11-25T23:41:22.656Z,1.40
2017-11-25T23:43:50.950Z,1.40
2017-11-25T23:46:20.030Z,1.40
2017-11-25T23:48:48.311Z,1.40
2017-11-25T23:51:16.658Z,1.40
2017-11-25T23:53:44.941Z,1.50
2017-11-25T23:56:13.209Z,1.50
2017-11-25T23:58:41.474Z,1.50
